Time;durP1;ratioP1;P1;durP2;ratioP2;P2;SDS_P1;SDS_P2;PMS_P1;PMS_P2;Temp;Humidity;BMP_temperature;BMP_pressure;BME280_temperature;BME280_humidity;BME280_pressure;Samples;Min_cycle;Max_cycle;Signal;HPM_P1;HPM_P2
2022/04/23 00:01:01;;;;;;;0.00;0.00;;;;;;;11.96;52.74;100592.19;7356230;19;20936;-63
2022/04/23 00:03:26;;;;;;;0.00;0.00;;;;;;;11.97;52.69;100593.09;7350664;19;20026;-62
2022/04/23 00:05:52;;;;;;;0.00;0.00;;;;;;;11.92;52.77;100590.59;7357819;19;20362;-62
2022/04/23 00:08:17;;;;;;;0.00;0.00;;;;;;;11.91;53.06;100586.25;7351403;19;20006;-63
2022/04/23 00:10:43;;;;;;;0.00;0.00;;;;;;;11.87;53.03;100588.13;7351234;19;20910;-63
2022/04/23 00:13:09;;;;;;;0.00;0.00;;;;;;;11.83;52.98;100585.63;7357319;19;20498;-63
2022/04/23 00:15:38;;;;;;;0.00;0.00;;;;;;;11.80;52.99;100585.69;7355459;19;20066;-62
2022/04/23 00:18:08;;;;;;;0.00;0.00;;;;;;;11.75;53.07;100593.66;7347330;19;20010;-63
2022/04/23 00:20:35;;;;;;;0.00;0.00;;;;;;;11.68;53.40;100592.13;7352176;19;20815;-63
2022/04/23 00:23:01;;;;;;;0.00;0.00;;;;;;;11.69;52.62;100599.94;7355286;19;20888;-62
2022/04/23 00:25:27;;;;;;;0.00;0.00;;;;;;;11.55;52.18;100580.31;7357497;19;20021;-63
2022/04/23 00:27:52;;;;;;;0.00;0.00;;;;;;;11.62;52.92;100598.41;7353301;19;20799;-62
2022/04/23 00:30:18;;;;;;;0.00;0.00;;;;;;;11.59;52.37;100593.25;7352565;19;20071;-63
2022/04/23 00:32:43;;;;;;;0.00;0.00;;;;;;;11.57;52.64;100588.97;7356343;19;20006;-63
2022/04/23 00:35:16;;;;;;;0.00;0.00;;;;;;;11.53;52.38;100588.19;7356609;19;20082;-62
2022/04/23 00:37:42;;;;;;;0.00;0.00;;;;;;;11.49;52.80;100585.72;7355354;19;20030;-63
2022/04/23 00:40:16;;;;;;;0.00;0.00;;;;;;;11.47;52.97;100577.94;7346419;19;20411;-61
2022/04/23 00:42:50;;;;;;;0.00;0.00;;;;;;;11.40;52.87;100571.13;7356898;19;20007;-63
2022/04/23 00:45:16;;;;;;;0.00;0.00;;;;;;;11.41;53.41;100570.25;7346053;19;20336;-63
2022/04/23 00:47:41;;;;;;;0.00;0.00;;;;;;;11.37;53.19;100573.84;7353000;19;20047;-62
2022/04/23 00:50:07;;;;;;;0.00;0.00;;;;;;;11.35;53.45;100565.19;7353083;19;20010;-63
2022/04/23 00:52:33;;;;;;;0.00;0.00;;;;;;;11.32;53.11;100568.75;7351680;19;20085;-63
2022/04/23 00:55:00;;;;;;;0.00;0.00;;;;;;;11.28;53.76;100568.88;7351159;19;20002;-63
2022/04/23 00:57:26;;;;;;;0.00;0.00;;;;;;;11.26;53.54;100573.31;7351070;19;20025;-62
2022/04/23 00:59:52;;;;;;;0.00;0.00;;;;;;;11.15;53.85;100550.94;7356629;19;20003;-63
2022/04/23 01:02:17;;;;;;;0.00;0.00;;;;;;;11.19;53.79;100564.75;7349141;19;20022;-62
2022/04/23 01:04:44;;;;;;;0.00;0.00;;;;;;;11.14;54.19;100559.63;7352398;19;20477;-62
2022/04/23 01:07:12;;;;;;;0.00;0.00;;;;;;;11.06;54.57;100561.63;7355013;19;20018;-61
2022/04/23 01:09:39;;;;;;;0.00;0.00;;;;;;;11.05;54.37;100564.25;7345299;19;20013;-62
2022/04/23 01:12:05;;;;;;;0.00;0.00;;;;;;;10.96;54.74;100554.06;7354187;19;20013;-62
2022/04/23 01:14:31;;;;;;;0.00;0.00;;;;;;;11.00;54.57;100566.13;7352014;19;20025;-63
2022/04/23 01:16:56;;;;;;;0.00;0.00;;;;;;;10.97;54.81;100567.09;7351508;19;20730;-62
2022/04/23 01:19:22;;;;;;;0.00;0.00;;;;;;;10.94;54.52;100556.72;7354390;19;20571;-62
2022/04/23 01:21:47;;;;;;;0.00;0.00;;;;;;;10.93;54.44;100560.22;7353327;19;20006;-63
2022/04/23 01:24:15;;;;;;;0.00;0.00;;;;;;;10.78;54.51;100529.28;7350384;19;20014;-63
2022/04/23 01:26:40;;;;;;;0.00;0.00;;;;;;;10.88;54.50;100544.66;7354332;19;20017;-62
2022/04/23 01:29:05;;;;;;;0.00;0.00;;;;;;;10.84;54.34;100534.34;7347233;19;20003;-62
2022/04/23 01:31:32;;;;;;;0.00;0.00;;;;;;;10.76;54.38;100524.09;7356710;19;20006;-62
2022/04/23 01:33:57;;;;;;;0.00;0.00;;;;;;;10.77;54.22;100533.66;7351546;19;20059;-63
2022/04/23 01:36:23;;;;;;;0.00;0.00;;;;;;;10.76;54.47;100536.31;7357876;19;20058;-62
2022/04/23 01:38:49;;;;;;;0.00;0.00;;;;;;;10.72;54.82;100532.06;7355843;19;20014;-63
2022/04/23 01:41:14;;;;;;;0.00;0.00;;;;;;;10.69;54.83;100519.91;7351609;19;20014;-62
2022/04/23 01:43:40;;;;;;;0.00;0.00;;;;;;;10.67;54.87;100515.66;7357180;19;20006;-63
2022/04/23 01:46:05;;;;;;;0.00;0.00;;;;;;;10.54;54.74;100495.09;7359893;19;20002;-63
2022/04/23 01:48:31;;;;;;;0.00;0.00;;;;;;;10.61;54.62;100506.22;7365164;19;20011;-62
2022/04/23 01:50:56;;;;;;;0.00;0.00;;;;;;;10.56;54.89;100511.56;7363993;19;20655;-63
2022/04/23 01:53:22;;;;;;;0.00;0.00;;;;;;;10.54;54.22;100505.53;7359896;19;20765;-63
2022/04/23 01:55:51;;;;;;;0.00;0.00;;;;;;;10.54;54.89;100502.94;7360087;19;19998;-62
2022/04/23 01:58:17;;;;;;;0.00;0.00;;;;;;;10.46;54.69;100497.03;7354379;19;20006;-62
2022/04/23 02:00:44;;;;;;;0.00;0.00;;;;;;;10.49;54.53;100502.19;7361891;19;20404;-63
2022/04/23 02:03:09;;;;;;;0.00;0.00;;;;;;;10.47;54.53;100501.34;7338073;19;20018;-61
2022/04/23 02:05:34;;;;;;;0.00;0.00;;;;;;;10.44;54.61;100498.84;7357703;19;20572;-63
2022/04/23 02:08:00;;;;;;;0.00;0.00;;;;;;;10.42;54.84;100505.84;7354642;19;20006;-62
2022/04/23 02:10:25;;;;;;;0.00;0.00;;;;;;;10.40;54.54;100510.25;7354994;19;20463;-62
2022/04/23 02:12:51;;;;;;;0.00;0.00;;;;;;;10.38;54.57;100514.63;7348889;19;20040;-62
2022/04/23 02:15:17;;;;;;;0.00;0.00;;;;;;;10.33;54.86;100516.50;7358500;19;20036;-63
2022/04/23 02:17:48;;;;;;;0.00;0.00;;;;;;;10.35;54.47;100512.97;7359768;19;20021;-63
2022/04/23 02:20:15;;;;;;;0.00;0.00;;;;;;;10.33;54.47;100516.50;7361190;19;20017;-63
2022/04/23 02:22:42;;;;;;;0.00;0.00;;;;;;;10.30;54.56;100517.44;7360876;19;20006;-62
2022/04/23 02:25:08;;;;;;;0.00;0.00;;;;;;;10.18;55.06;100501.19;7360284;19;20070;-62
2022/04/23 02:27:45;;;;;;;0.00;0.00;;;;;;;10.29;53.97;100505.28;7359945;19;20015;-62
2022/04/23 02:30:18;;;;;;;0.00;0.00;;;;;;;10.28;54.75;100507.91;7350400;19;20029;-62
2022/04/23 02:32:45;;;;;;;0.00;0.00;;;;;;;10.26;54.89;100504.50;7361320;19;20010;-61
2022/04/23 02:35:11;;;;;;;0.00;0.00;;;;;;;10.24;55.41;100491.50;7359158;19;22731;-63
2022/04/23 02:37:37;;;;;;;0.00;0.00;;;;;;;10.11;55.61;100475.25;7343600;19;20014;-63
2022/04/23 02:40:07;;;;;;;0.00;0.00;;;;;;;10.23;55.30;100494.09;7359262;19;20031;-62
2022/04/23 02:42:39;;;;;;;0.00;0.00;;;;;;;10.22;55.59;100493.25;7361530;19;20026;-62
2022/04/23 02:45:06;;;;;;;0.00;0.00;;;;;;;10.21;55.86;100486.31;7358958;19;20010;-63
2022/04/23 02:47:45;;;;;;;0.00;0.00;;;;;;;10.22;54.52;100489.78;7353072;19;20126;-63
2022/04/23 02:50:11;;;;;;;0.00;0.00;;;;;;;10.19;56.83;100493.34;7360787;19;20013;-63
2022/04/23 02:52:37;;;;;;;0.00;0.00;;;;;;;10.07;56.46;100477.97;7361664;19;20010;-62
2022/04/23 02:55:02;;;;;;;0.00;0.00;;;;;;;10.17;57.20;100495.09;7345381;19;20182;-62
2022/04/23 02:57:28;;;;;;;0.00;0.00;;;;;;;10.16;57.10;100493.41;7360735;19;20074;-63
2022/04/23 02:59:53;;;;;;;0.00;0.00;;;;;;;10.02;56.94;100469.38;7356272;19;20018;-63
2022/04/23 03:02:18;;;;;;;0.00;0.00;;;;;;;10.14;57.15;100490.84;7359826;19;20089;-63
2022/04/23 03:04:44;;;;;;;0.00;0.00;;;;;;;10.13;57.48;100490.84;7349705;19;19998;-62
2022/04/23 03:07:10;;;;;;;0.00;0.00;;;;;;;10.11;57.50;100495.25;7351591;19;20013;-63
2022/04/23 03:09:37;;;;;;;0.00;0.00;;;;;;;10.11;56.98;100496.13;7354488;19;20010;-63
2022/04/23 03:12:02;;;;;;;0.00;0.00;;;;;;;10.08;57.41;100485.75;7348187;19;20010;-62
2022/04/23 03:14:28;;;;;;;0.00;0.00;;;;;;;10.06;57.62;100482.31;7354501;19;20011;-63
2022/04/23 03:16:53;;;;;;;0.00;0.00;;;;;;;10.04;56.93;100478.06;7361972;19;20790;-62
2022/04/23 03:19:19;;;;;;;0.00;0.00;;;;;;;9.97;57.75;100466.03;7351212;19;20003;-62
2022/04/23 03:21:44;;;;;;;0.00;0.00;;;;;;;10.03;57.74;100477.16;7362830;19;20766;-62
2022/04/23 03:24:10;;;;;;;0.00;0.00;;;;;;;10.00;57.42;100477.25;7361801;19;20034;-63
2022/04/23 03:26:35;;;;;;;0.00;0.00;;;;;;;10.05;57.77;100474.53;7361817;19;20010;-63
2022/04/23 03:29:00;;;;;;;0.00;0.00;;;;;;;10.03;58.30;100471.94;7361246;19;20007;-62
2022/04/23 03:31:26;;;;;;;0.00;0.00;;;;;;;10.02;58.19;100479.81;7364973;19;20006;-62
2022/04/23 03:33:51;;;;;;;0.00;0.00;;;;;;;10.03;58.07;100477.16;7360972;19;20010;-62
2022/04/23 03:36:17;;;;;;;0.00;0.00;;;;;;;9.92;58.29;100463.53;7359259;19;20006;-62
2022/04/23 03:38:43;;;;;;;0.00;0.00;;;;;;;10.00;58.66;100477.25;7351375;19;20745;-63
2022/04/23 03:41:09;;;;;;;0.00;0.00;;;;;;;10.00;58.88;100471.19;7365346;19;20006;-62
2022/04/23 03:43:34;;;;;;;0.00;0.00;;;;;;;10.00;58.51;100476.41;7357405;19;20006;-63
2022/04/23 03:45:59;;;;;;;0.00;0.00;;;;;;;9.98;58.99;100471.19;7361546;19;20006;-63
2022/04/23 03:48:25;;;;;;;0.00;0.00;;;;;;;9.98;58.54;100471.19;7360855;19;20073;-63
2022/04/23 03:50:50;;;;;;;0.00;0.00;;;;;;;9.95;59.09;100473.91;7348266;19;20010;-62
2022/04/23 03:53:16;;;;;;;0.00;0.00;;;;;;;9.96;58.87;100470.41;7361260;19;20050;-61
2022/04/23 03:55:41;;;;;;;0.00;0.00;;;;;;;9.95;59.40;100458.25;7353335;19;20012;-61
2022/04/23 03:58:07;;;;;;;0.00;0.00;;;;;;;9.96;59.38;100464.31;7361452;19;20746;-62
2022/04/23 04:00:34;;;;;;;0.00;0.00;;;;;;;9.95;59.02;100458.25;7359008;19;20017;-63
2022/04/23 04:02:59;;;;;;;0.00;0.00;;;;;;;9.95;59.45;100463.47;7350002;19;20725;-63
2022/04/23 04:05:25;;;;;;;0.00;0.00;;;;;;;9.94;59.42;100461.75;7359878;19;20009;-63
2022/04/23 04:07:52;;;;;;;0.00;0.00;;;;;;;9.92;59.81;100463.53;7360700;19;20089;-63
2022/04/23 04:10:19;;;;;;;0.00;0.00;;;;;;;9.95;59.73;100473.91;7356573;19;20030;-62
2022/04/23 04:12:45;;;;;;;0.00;0.00;;;;;;;9.86;59.59;100455.84;7358364;19;20014;-62
2022/04/23 04:15:12;;;;;;;0.00;0.00;;;;;;;9.93;59.88;100475.66;7356413;19;20525;-63
2022/04/23 04:17:41;;;;;;;0.00;0.00;;;;;;;9.94;60.13;100472.19;7358694;19;20529;-63
2022/04/23 04:20:11;;;;;;;0.00;0.00;;;;;;;9.90;59.47;100460.13;7350712;19;20018;-63
2022/04/23 04:22:44;;;;;;;0.00;0.00;;;;;;;9.93;60.03;100470.47;7359986;19;20010;-62
2022/04/23 04:25:13;;;;;;;0.00;0.00;;;;;;;9.94;60.68;100469.59;7352471;19;20006;-63
2022/04/23 04:27:38;;;;;;;0.00;0.00;;;;;;;9.92;60.20;100468.75;7360292;19;20831;-63
2022/04/23 04:30:07;;;;;;;0.00;0.00;;;;;;;9.95;60.95;100468.69;7357294;19;20031;-63
2022/04/23 04:32:33;;;;;;;0.00;0.00;;;;;;;9.92;60.58;100460.06;7359724;19;20019;-61
2022/04/23 04:34:58;;;;;;;0.00;0.00;;;;;;;9.94;60.60;100471.34;7353608;19;21008;-63
2022/04/23 04:37:24;;;;;;;0.00;0.00;;;;;;;9.93;60.99;100465.25;7359106;19;20529;-62
2022/04/23 04:39:50;;;;;;;0.00;0.00;;;;;;;9.91;60.82;100459.22;7361686;19;20466;-63
2022/04/23 04:42:15;;;;;;;0.00;0.00;;;;;;;9.93;61.36;100465.25;7356156;19;20015;-63
2022/04/23 04:44:41;;;;;;;0.00;0.00;;;;;;;9.93;60.84;100465.25;7363415;19;20010;-62
2022/04/23 04:47:08;;;;;;;0.00;0.00;;;;;;;9.93;61.13;100470.47;7345026;19;20014;-63
2022/04/23 04:49:34;;;;;;;0.00;0.00;;;;;;;9.77;60.48;100443.03;7362319;19;20030;-62
2022/04/23 04:51:59;;;;;;;0.00;0.00;;;;;;;9.94;60.86;100472.19;7351112;19;20003;-63
2022/04/23 04:54:24;;;;;;;0.00;0.00;;;;;;;9.94;61.69;100476.56;7361679;19;20381;-62
2022/04/23 04:56:51;;;;;;;0.00;0.00;;;;;;;9.94;61.95;100474.81;7358749;19;20099;-63
2022/04/23 04:59:17;;;;;;;0.00;0.00;;;;;;;9.83;62.01;100448.09;7358731;19;20037;-63
2022/04/23 05:01:43;;;;;;;0.00;0.00;;;;;;;9.95;62.29;100463.47;7353534;19;21100;-63
2022/04/23 05:04:09;;;;;;;0.00;0.00;;;;;;;9.86;62.45;100450.63;7358780;19;20053;-59
2022/04/23 05:06:35;;;;;;;0.00;0.00;;;;;;;9.95;62.30;100468.69;7351035;19;20013;-63
2022/04/23 05:09:00;;;;;;;0.10;0.10;;;;;;;9.97;62.52;100469.50;7357194;19;20480;-63
2022/04/23 05:11:26;;;;;;;0.00;0.00;;;;;;;9.87;61.97;100449.75;7354645;19;20021;-62
2022/04/23 05:13:51;;;;;;;0.00;0.00;;;;;;;9.98;62.46;100468.59;7356935;19;20014;-62
2022/04/23 05:16:20;;;;;;;0.00;0.00;;;;;;;9.97;62.31;100466.88;7356135;19;20022;-62
2022/04/23 05:18:45;;;;;;;0.00;0.00;;;;;;;9.99;62.58;100467.72;7351325;19;20048;-62
2022/04/23 05:21:11;;;;;;;0.00;0.00;;;;;;;10.00;62.81;100472.03;7365666;19;20344;-63
2022/04/23 05:23:36;;;;;;;0.08;0.08;;;;;;;10.00;62.98;100472.03;7367300;19;20010;-62
2022/04/23 05:26:03;;;;;;;0.00;0.00;;;;;;;10.02;62.17;100474.59;7362415;19;20013;-63
2022/04/23 05:28:29;;;;;;;0.00;0.00;;;;;;;10.02;62.88;100475.47;7355722;19;20019;-62
2022/04/23 05:30:54;;;;;;;0.00;0.00;;;;;;;10.03;62.92;100476.31;7368381;19;20050;-63
2022/04/23 05:33:20;;;;;;;0.00;0.00;;;;;;;10.03;62.77;100471.09;7360411;19;20007;-63
2022/04/23 05:35:45;;;;;;;0.00;0.00;;;;;;;10.03;62.92;100479.78;7364334;19;20013;-62
2022/04/23 05:38:11;;;;;;;0.00;0.00;;;;;;;10.00;63.01;100477.25;7363730;19;20861;-63
2022/04/23 05:40:36;;;;;;;0.00;0.00;;;;;;;10.05;63.00;100485.84;7364706;19;20015;-63
2022/04/23 05:43:02;;;;;;;0.00;0.00;;;;;;;10.00;62.99;100477.25;7365773;19;20018;-62
2022/04/23 05:45:29;;;;;;;0.00;0.00;;;;;;;10.07;62.64;100484.03;7356356;19;20021;-63
2022/04/23 05:47:55;;;;;;;0.00;0.00;;;;;;;10.08;63.19;100485.75;7365791;19;20021;-62
2022/04/23 05:50:22;;;;;;;0.00;0.00;;;;;;;10.08;63.26;100485.75;7365490;19;20031;-62
2022/04/23 05:52:48;;;;;;;0.00;0.00;;;;;;;10.04;63.10;100480.66;7357907;19;20026;-63
2022/04/23 05:55:14;;;;;;;0.00;0.00;;;;;;;10.11;63.14;100500.47;7367400;19;20006;-63
2022/04/23 05:57:40;;;;;;;0.00;0.00;;;;;;;10.13;63.05;100498.69;7361596;19;20044;-63
2022/04/23 06:00:08;;;;;;;0.00;0.00;;;;;;;10.14;63.21;100501.28;7362777;19;20372;-62
2022/04/23 06:02:34;;;;;;;0.00;0.00;;;;;;;10.17;63.44;100499.47;7364357;19;20026;-63
2022/04/23 06:04:59;;;;;;;0.00;0.00;;;;;;;10.20;63.01;100499.41;7360335;19;20576;-63
2022/04/23 06:07:25;;;;;;;0.00;0.00;;;;;;;10.18;63.19;100498.56;7361467;19;20007;-62
2022/04/23 06:09:51;;;;;;;0.00;0.00;;;;;;;10.25;63.08;100497.56;7362404;19;20455;-63
2022/04/23 06:12:16;;;;;;;0.00;0.00;;;;;;;10.16;63.63;100469.91;7363787;19;20021;-63
2022/04/23 06:14:41;;;;;;;0.00;0.00;;;;;;;10.27;63.32;100491.41;7358456;19;20009;-61
2022/04/23 06:17:08;;;;;;;0.00;0.00;;;;;;;10.29;63.38;100478.31;7356650;19;20006;-63
2022/04/23 06:19:34;;;;;;;0.00;0.00;;;;;;;10.37;63.29;100502.47;7362519;19;20029;-63
2022/04/23 06:21:59;;;;;;;0.00;0.00;;;;;;;10.41;63.22;100501.50;7365873;19;20415;-63
2022/04/23 06:24:25;;;;;;;0.00;0.00;;;;;;;10.44;63.52;100496.22;7364335;19;20010;-62
2022/04/23 06:26:51;;;;;;;0.00;0.00;;;;;;;10.39;63.33;100487.63;7359305;19;20010;-63
2022/04/23 06:29:17;;;;;;;0.00;0.00;;;;;;;10.51;63.39;100508.22;7352016;19;20011;-63
2022/04/23 06:31:42;;;;;;;0.00;0.00;;;;;;;10.57;63.44;100510.66;7362997;19;20524;-62
2022/04/23 06:34:07;;;;;;;0.00;0.00;;;;;;;10.59;63.44;100508.88;7357942;19;20014;-63
2022/04/23 06:36:34;;;;;;;0.00;0.00;;;;;;;10.60;63.10;100513.22;7359367;19;20003;-64
2022/04/23 06:38:59;;;;;;;0.00;0.00;;;;;;;10.71;63.68;100518.16;7363139;19;20078;-62
2022/04/23 06:41:25;;;;;;;0.00;0.00;;;;;;;10.74;63.91;100512.81;7358999;19;20691;-63
2022/04/23 06:43:51;;;;;;;0.00;0.00;;;;;;;10.78;63.52;100511.00;7359489;19;20078;-62
2022/04/23 06:46:17;;;;;;;0.00;0.00;;;;;;;10.83;63.25;100522.19;7360206;19;20014;-62
2022/04/23 06:48:42;;;;;;;0.00;0.00;;;;;;;10.88;63.83;100525.53;7361669;19;20050;-63
2022/04/23 06:51:08;;;;;;;0.00;0.00;;;;;;;10.92;63.30;100521.94;7362353;19;20018;-62
2022/04/23 06:53:33;;;;;;;0.00;0.00;;;;;;;10.91;63.61;100515.00;7358605;19;20469;-63
2022/04/23 06:55:59;;;;;;;0.00;0.00;;;;;;;11.01;63.01;100521.69;7359131;19;20010;-63
2022/04/23 06:58:24;;;;;;;0.00;0.00;;;;;;;11.05;63.35;100519.84;7360670;19;20010;-63
2022/04/23 07:00:49;;;;;;;0.00;0.00;;;;;;;11.08;63.22;100517.16;7357925;19;20560;-62
2022/04/23 07:03:15;;;;;;;0.00;0.00;;;;;;;11.09;62.94;100514.47;7362463;19;20078;-60
2022/04/23 07:05:40;;;;;;;0.00;0.00;;;;;;;11.12;63.17;100518.78;7349938;19;21486;-62
2022/04/23 07:08:06;;;;;;;0.00;0.00;;;;;;;11.13;62.98;100523.97;7356441;19;20026;-62
2022/04/23 07:10:32;;;;;;;0.00;0.00;;;;;;;11.15;63.24;100524.78;7354576;19;20105;-63
2022/04/23 07:12:58;;;;;;;0.00;0.00;;;;;;;11.17;63.32;100528.22;7353436;19;20109;-62
2022/04/23 07:15:25;;;;;;;0.00;0.00;;;;;;;11.21;63.31;100529.00;7358528;19;20010;-62
2022/04/23 07:17:51;;;;;;;0.00;0.00;;;;;;;11.25;63.54;100529.75;7359213;19;20366;-62
2022/04/23 07:20:18;;;;;;;0.00;0.00;;;;;;;11.31;64.18;100532.19;7359467;19;20002;-63
2022/04/23 07:25:38;;;;;;;0.00;0.00;;;;;;;11.49;63.20;100534.28;7258352;19;2004500;-61
2022/04/23 07:28:05;;;;;;;0.00;0.00;;;;;;;11.55;63.88;100528.00;7359982;19;20003;-63
2022/04/23 07:30:31;;;;;;;0.00;0.00;;;;;;;11.63;63.07;100533.88;7341683;19;20086;-62
2022/04/23 07:32:57;;;;;;;0.00;0.00;;;;;;;11.69;63.19;100534.53;7360396;19;20078;-63
2022/04/23 07:38:16;;;;;;;0.00;0.00;;;;;;;11.86;62.49;100533.19;7358443;19;20518;-63
2022/04/23 07:40:43;;;;;;;0.00;0.00;;;;;;;11.89;63.26;100533.97;7357148;19;20002;-64
2022/04/23 07:43:13;;;;;;;0.00;0.00;;;;;;;11.95;62.99;100527.69;7355412;19;20096;-62
2022/04/23 07:45:39;;;;;;;0.00;0.00;;;;;;;11.99;62.67;100518.84;7353513;19;20009;-63
2022/04/23 07:48:10;;;;;;;0.00;0.00;;;;;;;12.07;62.62;100524.69;7358740;19;20007;-63
2022/04/23 07:50:37;;;;;;;0.00;0.00;;;;;;;12.10;63.04;100516.72;7351043;19;20002;-63
2022/04/23 07:53:03;;;;;;;0.00;0.00;;;;;;;12.16;62.42;100516.53;7361020;19;20007;-62
2022/04/23 07:55:33;;;;;;;0.00;0.00;;;;;;;12.23;62.88;100518.97;7355374;19;20014;-62
2022/04/23 07:58:05;;;;;;;0.00;0.00;;;;;;;12.28;62.63;100515.31;7359250;19;20807;-62
2022/04/23 08:00:31;;;;;;;0.00;0.00;;;;;;;12.32;62.46;100514.31;7356912;19;20010;-62
2022/04/23 08:02:58;;;;;;;0.00;0.00;;;;;;;12.38;62.19;100510.63;7363315;19;19999;-63
2022/04/23 08:05:23;;;;;;;0.00;0.00;;;;;;;12.45;62.04;100512.13;7351143;19;20013;-63
2022/04/23 08:07:49;;;;;;;0.00;0.00;;;;;;;12.49;62.21;100511.09;7358294;19;20006;-63
2022/04/23 08:10:14;;;;;;;0.00;0.00;;;;;;;12.55;61.64;100510.91;7358369;19;20014;-63
2022/04/23 08:12:40;;;;;;;0.00;0.00;;;;;;;12.61;61.98;100512.44;7345864;19;20343;-63
2022/04/23 08:15:06;;;;;;;0.00;0.00;;;;;;;12.65;61.88;100514.06;7359873;19;20006;-62
2022/04/23 08:17:33;;;;;;;0.03;0.03;;;;;;;12.75;62.31;100525.09;7349811;19;20006;-63
2022/04/23 08:19:59;;;;;;;0.00;0.00;;;;;;;12.84;61.88;100519.53;7359367;19;20002;-63
2022/04/23 08:22:24;;;;;;;0.00;0.00;;;;;;;12.92;62.10;100520.09;7360026;19;20068;-63
2022/04/23 08:24:50;;;;;;;0.00;0.00;;;;;;;12.95;62.22;100509.53;7348818;19;20010;-63
2022/04/23 08:27:15;;;;;;;0.00;0.00;;;;;;;13.11;61.54;100526.41;7353931;19;20006;-61
2022/04/23 08:32:25;;;;;;;0.00;0.00;;;;;;;13.32;60.77;100521.31;7344823;19;20510;-63
2022/04/23 08:34:50;;;;;;;0.00;0.00;;;;;;;13.40;61.29;100527.16;7357849;19;20097;-63
2022/04/23 08:37:16;;;;;;;0.00;0.00;;;;;;;13.47;60.62;100520.75;7356986;19;20017;-63
2022/04/23 08:39:42;;;;;;;0.00;0.00;;;;;;;13.53;60.78;100520.53;7356706;19;20353;-63
2022/04/23 08:42:09;;;;;;;0.00;0.00;;;;;;;13.62;60.33;100520.19;7358243;19;20039;-63
2022/04/23 08:44:38;;;;;;;0.00;0.00;;;;;;;13.47;59.55;100484.88;7352638;19;20010;-63
2022/04/23 08:47:04;;;;;;;0.00;0.00;;;;;;;13.67;59.73;100518.22;7352466;19;20078;-62
2022/04/23 08:49:32;;;;;;;0.00;0.00;;;;;;;13.73;59.51;100523.25;7358079;19;20015;-63
2022/04/23 08:52:14;;;;;;;;;;;;;;;13.83;57.38;100528.13;7347917;19;20048;-63
2022/04/23 08:54:40;;;;;;;0.00;0.00;;;;;;;13.77;59.03;100535.34;7365612;19;20356;-63
2022/04/23 08:57:06;;;;;;;0.00;0.00;;;;;;;13.79;58.80;100532.66;7346191;19;20021;-62
2022/04/23 08:59:32;;;;;;;0.00;0.00;;;;;;;13.77;59.17;100527.47;7364504;19;20006;-63
2022/04/23 09:01:57;;;;;;;0.00;0.00;;;;;;;13.76;58.94;100528.38;7361034;19;20014;-63
2022/04/23 09:04:23;;;;;;;0.00;0.00;;;;;;;13.82;59.21;100535.16;7360914;19;20006;-63
2022/04/23 09:06:49;;;;;;;0.00;0.00;;;;;;;13.83;59.11;100536.00;7360266;19;20034;-63
2022/04/23 09:09:14;;;;;;;0.00;0.00;;;;;;;13.86;59.07;100533.28;7357407;19;20006;-62
2022/04/23 09:11:42;;;;;;;0.00;0.00;;;;;;;13.92;58.58;100543.53;7363616;19;20070;-63
2022/04/23 09:14:09;;;;;;;0.00;0.00;;;;;;;13.95;59.18;100527.69;7351721;19;20347;-61
2022/04/23 09:25:04;;;;;;;0.00;0.00;;;;;;;14.34;58.84;100534.84;7359323;19;20023;-63
2022/04/23 09:27:34;;;;;;;0.00;0.00;;;;;;;14.43;58.43;100545.00;7365452;19;20010;-62
2022/04/23 09:30:02;;;;;;;0.00;0.00;;;;;;;14.52;58.51;100536.75;7340438;19;20039;-64
2022/04/23 09:32:28;;;;;;;0.00;0.00;;;;;;;14.58;58.83;100512.00;7364596;19;20007;-63
2022/04/23 09:35:08;;;;;;;0.00;0.00;;;;;;;14.91;58.06;100536.00;7356766;19;20022;-63
2022/04/23 09:40:22;;;;;;;0.00;0.00;;;;;;;15.39;57.08;100527.69;7340003;19;20577;-61
2022/04/23 09:43:01;;;;;;;0.00;0.00;;;;;;;15.67;56.94;100522.06;7352507;19;20030;-63
2022/04/23 09:45:29;;;;;;;0.00;0.00;;;;;;;15.93;56.57;100517.34;7361043;19;20006;-63
2022/04/23 09:47:55;;;;;;;0.00;0.00;;;;;;;16.24;56.03;100514.09;7364359;19;20007;-63
2022/04/23 09:50:21;;;;;;;0.00;0.00;;;;;;;16.63;55.90;100526.22;7347569;19;22365;-63
2022/04/23 09:52:46;;;;;;;0.00;0.00;;;;;;;17.08;54.81;100509.81;7364100;19;20090;-63
2022/04/23 09:55:12;;;;;;;0.00;0.00;;;;;;;17.57;53.87;100520.38;7360828;19;20011;-64
2022/04/23 09:57:38;;;;;;;0.10;0.10;;;;;;;18.04;52.85;100506.34;7347625;19;20010;-64
2022/04/23 10:00:08;;;;;;;0.05;0.05;;;;;;;18.49;52.39;100507.28;7361255;19;20003;-63
2022/04/23 10:02:34;;;;;;;0.10;0.10;;;;;;;18.90;51.20;100511.00;7356736;19;20641;-64
2022/04/23 10:05:01;;;;;;;0.00;0.00;;;;;;;19.33;49.81;100513.69;7362995;19;20016;-64
2022/04/23 10:07:30;;;;;;;0.00;0.00;;;;;;;19.67;49.38;100501.84;7355169;19;20042;-64
2022/04/23 10:10:01;;;;;;;0.00;0.00;;;;;;;20.01;48.56;100502.31;7362480;19;20029;-63
2022/04/23 10:12:32;;;;;;;0.10;0.10;;;;;;;20.38;48.11;100508.72;7360384;19;20675;-64
2022/04/23 10:15:00;;;;;;;0.00;0.00;;;;;;;20.62;47.05;100508.03;7349681;19;20010;-64
2022/04/23 10:17:28;;;;;;;0.00;0.00;;;;;;;20.88;46.73;100504.47;7349846;19;20049;-64
2022/04/23 10:19:54;;;;;;;0.00;0.00;;;;;;;21.11;44.94;100499.38;7357962;19;20099;-63
2022/04/23 10:22:31;;;;;;;0.00;0.00;;;;;;;21.41;45.57;100507.84;7363200;19;20030;-63
2022/04/23 10:25:22;;;;;;;0.03;0.03;;;;;;;21.78;46.82;100510.53;7353815;19;20034;-64
2022/04/23 10:27:49;;;;;;;0.10;0.10;;;;;;;21.92;44.30;100502.41;7260796;19;2004608;-65
2022/04/23 10:30:15;;;;;;;0.00;0.00;;;;;;;22.14;43.44;100484.88;7337482;19;20014;-64
2022/04/23 10:32:42;;;;;;;0.10;0.10;;;;;;;22.45;42.43;100505.56;7361328;19;20010;-64
2022/04/23 10:35:30;;;;;;;0.00;0.00;;;;;;;22.84;45.18;100506.16;7356147;19;20034;-64
2022/04/23 10:37:56;;;;;;;0.05;0.05;;;;;;;22.90;41.38;100504.88;7355432;19;20004;-64
2022/04/23 10:40:22;;;;;;;0.10;0.10;;;;;;;23.08;41.38;100510.59;7357699;19;20014;-64
2022/04/23 10:43:06;;;;;;;0.00;0.00;;;;;;;23.42;43.73;100514.97;7359673;19;20002;-64
2022/04/23 10:45:32;;;;;;;0.10;0.10;;;;;;;23.40;40.02;100498.22;7355451;19;20002;-63
2022/04/23 10:48:22;;;;;;;0.10;0.10;;;;;;;23.76;42.64;100504.28;7349361;19;20019;-64
2022/04/23 10:51:16;;;;;;;0.10;0.10;;;;;;;24.02;42.18;100510.16;7355383;19;20808;-64
2022/04/23 10:53:41;;;;;;;0.10;0.10;;;;;;;24.15;39.04;100510.00;7254556;19;2004287;-64
2022/04/23 10:56:11;;;;;;;0.00;0.00;;;;;;;24.25;39.05;100481.59;7354081;19;20006;-64
2022/04/23 10:58:43;;;;;;;0.00;0.00;;;;;;;24.61;37.24;100503.53;7354514;19;20014;-64
2022/04/23 11:01:29;;;;;;;0.10;0.10;;;;;;;24.95;40.60;100505.00;7356335;19;20451;-64
2022/04/23 11:03:55;;;;;;;0.00;0.00;;;;;;;25.01;37.86;100506.31;7355691;19;20034;-64
2022/04/23 11:12:28;;;;;;;0.00;0.00;;;;;;;25.91;37.68;100511.75;7255019;19;2005484;-64
2022/04/23 11:14:57;;;;;;;0.10;0.10;;;;;;;26.04;36.12;100498.09;7357673;19;20049;-63
2022/04/23 11:17:33;;;;;;;0.00;0.00;;;;;;;26.40;36.64;100515.28;7352984;19;20003;-63
2022/04/23 11:19:59;;;;;;;0.00;0.00;;;;;;;26.47;34.89;100503.09;7353285;19;20807;-63
2022/04/23 11:22:26;;;;;;;0.10;0.10;;;;;;;26.64;34.76;100506.84;7351845;19;20022;-62
2022/04/23 11:24:53;;;;;;;;;;;;;;;27.06;39.14;100507.31;7356835;19;20002;-63
2022/04/23 11:27:38;;;;;;;0.10;0.10;;;;;;;27.14;35.25;100514.69;7351739;19;19923;-64
2022/04/23 11:30:05;;;;;;;0.10;0.10;;;;;;;27.13;33.48;100523.72;7355659;19;20010;-63
2022/04/23 11:32:33;;;;;;;0.00;0.00;;;;;;;27.19;32.60;100503.50;7342160;19;20014;-63
2022/04/23 11:35:03;;;;;;;0.00;0.00;;;;;;;27.37;33.61;100516.00;7356075;19;20844;-63
2022/04/23 11:37:33;;;;;;;0.10;0.10;;;;;;;27.53;33.10;100520.72;7360011;19;20513;-64
2022/04/23 11:40:08;;;;;;;0.00;0.00;;;;;;;27.74;33.62;100500.88;7340815;19;20002;-63
2022/04/23 11:42:41;;;;;;;0.10;0.10;;;;;;;27.93;33.92;100500.75;7344806;19;20817;-63
2022/04/23 11:45:09;;;;;;;0.10;0.10;;;;;;;27.93;31.79;100506.97;7355378;19;20015;-63
2022/04/23 11:47:35;;;;;;;0.10;0.10;;;;;;;27.86;31.27;100499.66;7360614;19;20010;-63
2022/04/23 11:50:11;;;;;;;0.10;0.10;;;;;;;27.81;32.81;100504.63;7360873;19;20714;-63
2022/04/23 11:52:38;;;;;;;0.10;0.10;;;;;;;27.42;31.50;100510.16;7358247;19;20565;-64